Time;durP1;ratioP1;P1;durP2;ratioP2;P2;SDS_P1;SDS_P2;PMS_P1;PMS_P2;Temp;Humidity;BMP_temperature;BMP_pressure;BME280_temperature;BME280_humidity;BME280_pressure;Samples;Min_cycle;Max_cycle;Signal;HPM_P1;HPM_P2
2023/08/29 00:03:39;;;;;;;19.63;13.23;;;;;;;;;;10203141;29;20055;-91
2023/08/29 00:08:40;;;;;;;23.05;16.13;;;;;;;;;;10203917;29;20456;-89
2023/08/29 00:13:43;;;;;;;20.63;15.40;;;;;;;;;;10203391;29;20047;-87
2023/08/29 00:18:44;;;;;;;25.60;16.42;;;;;;;;;;10203542;29;20131;-87
2023/08/29 00:23:48;;;;;;;23.58;16.05;;;;;;;;;;10190670;29;20040;-87
2023/08/29 00:28:49;;;;;;;21.52;15.93;;;;;;;;;;10202831;29;20040;-86
2023/08/29 00:33:51;;;;;;;19.85;14.50;;;;;;;;;;10184807;29;20051;-85
2023/08/29 00:38:52;;;;;;;20.83;15.38;;;;;;;;;;10200905;29;20617;-86
2023/08/29 00:43:53;;;;;;;22.60;15.85;;;;;;;;;;10200958;29;20126;-87
2023/08/29 00:48:55;;;;;;;27.15;18.50;;;;;;;;;;10202516;29;20520;-85
2023/08/29 00:53:56;;;;;;;29.50;17.88;;;;;;;;;;10200853;29;20359;-85
2023/08/29 00:58:57;;;;;;;28.10;19.48;;;;;;;;;;10202551;29;20873;-86
2023/08/29 01:03:58;;;;;;;29.92;20.63;;;;;;;;;;10200729;29;20121;-88
2023/08/29 01:09:00;;;;;;;28.35;20.85;;;;;;;;;;10201099;29;20727;-85
2023/08/29 01:14:16;;;;;;;30.70;21.50;;;;;;;;;;10200710;29;20043;-87
2023/08/29 01:19:20;;;;;;;28.23;19.90;;;;;;;;;;10202476;29;20051;-84
2023/08/29 01:24:27;;;;;;;25.88;18.13;;;;;;;;;;10201671;29;20044;-85
2023/08/29 01:29:28;;;;;;;27.38;18.83;;;;;;;;;;10199771;29;20138;-85
2023/08/29 01:34:29;;;;;;;21.77;16.48;;;;;;;;;;10191617;29;20043;-84
2023/08/29 01:39:30;;;;;;;18.83;14.57;;;;;;;;;;10200828;29;20499;-84
2023/08/29 01:44:31;;;;;;;18.23;12.88;;;;;;;;;;10202314;29;20034;-85
2023/08/29 01:49:32;;;;;;;18.83;12.85;;;;;;;;;;10200959;29;20043;-84
2023/08/29 01:54:34;;;;;;;17.00;12.32;;;;;;;;;;10201159;29;20046;-85
2023/08/29 01:59:35;;;;;;;13.77;10.20;;;;;;;;;;10199692;29;20040;-85
2023/08/29 02:04:36;;;;;;;13.60;9.75;;;;;;;;;;10227035;23;20060;-85
2023/08/29 02:09:37;;;;;;;26.10;16.35;;;;;;;;;;10191623;29;20476;-84
2023/08/29 02:14:38;;;;;;;23.05;15.43;;;;;;;;;;10156590;29;20044;-87
2023/08/29 02:19:39;;;;;;;21.67;13.30;;;;;;;;;;10164247;29;20032;-85
2023/08/29 02:24:40;;;;;;;16.73;12.07;;;;;;;;;;10168356;29;20046;-85
2023/08/29 02:29:41;;;;;;;15.70;10.48;;;;;;;;;;10162780;29;20400;-85
2023/08/29 02:34:42;;;;;;;12.82;9.48;;;;;;;;;;10174095;29;20040;-85
2023/08/29 02:39:43;;;;;;;13.02;9.50;;;;;;;;;;10159986;29;20036;-86
2023/08/29 02:44:44;;;;;;;17.15;12.13;;;;;;;;;;10167488;29;20039;-85
2023/08/29 02:49:45;;;;;;;17.48;11.70;;;;;;;;;;10174254;29;20888;-85
2023/08/29 02:54:46;;;;;;;19.10;11.48;;;;;;;;;;10163253;29;20040;-85
2023/08/29 02:59:47;;;;;;;16.30;11.65;;;;;;;;;;10167502;29;20032;-85
2023/08/29 03:04:48;;;;;;;17.95;12.00;;;;;;;;;;10131425;29;20066;-87
2023/08/29 03:09:49;;;;;;;19.17;13.25;;;;;;;;;;10126628;29;20050;-87
2023/08/29 03:14:53;;;;;;;18.55;13.02;;;;;;;;;;10133984;29;20052;-86
2023/08/29 03:19:54;;;;;;;27.48;15.73;;;;;;;;;;10130195;29;20413;-85
2023/08/29 03:24:55;;;;;;;30.48;17.02;;;;;;;;;;10128996;29;20050;-86
2023/08/29 03:29:57;;;;;;;31.20;17.67;;;;;;;;;;10130293;29;20039;-85
2023/08/29 03:34:58;;;;;;;28.50;16.30;;;;;;;;;;10129345;29;20761;-85
2023/08/29 03:39:59;;;;;;;37.83;18.35;;;;;;;;;;10126204;29;20036;-87
2023/08/29 03:45:00;;;;;;;25.17;16.35;;;;;;;;;;10116541;29;20043;-84
2023/08/29 03:50:02;;;;;;;44.17;19.90;;;;;;;;;;10139896;29;20039;-87
2023/08/29 03:55:04;;;;;;;25.02;16.52;;;;;;;;;;10133365;29;20048;-86
2023/08/29 04:00:09;;;;;;;31.27;18.25;;;;;;;;;;10122190;29;20036;-86
2023/08/29 04:05:11;;;;;;;32.78;18.48;;;;;;;;;;10126527;29;20065;-86
2023/08/29 04:10:13;;;;;;;39.30;20.58;;;;;;;;;;10119635;29;20020;-87
2023/08/29 04:15:14;;;;;;;28.73;17.92;;;;;;;;;;10124761;29;20036;-88
2023/08/29 04:20:16;;;;;;;34.80;19.33;;;;;;;;;;10112921;29;20036;-86
2023/08/29 04:25:17;;;;;;;39.63;20.00;;;;;;;;;;10124909;29;20523;-86
2023/08/29 04:30:18;;;;;;;36.60;20.08;;;;;;;;;;10112757;29;20033;-86
2023/08/29 04:35:19;;;;;;;28.05;17.45;;;;;;;;;;10109405;29;20521;-88
2023/08/29 04:40:21;;;;;;;32.03;18.88;;;;;;;;;;10136090;29;20071;-84
2023/08/29 04:45:23;;;;;;;40.53;21.00;;;;;;;;;;10132883;29;20170;-85
2023/08/29 04:50:26;;;;;;;35.22;19.25;;;;;;;;;;10126660;29;20067;-87
2023/08/29 04:55:27;;;;;;;72.05;24.67;;;;;;;;;;10109882;29;20071;-85
2023/08/29 05:00:28;;;;;;;81.80;26.08;;;;;;;;;;10115116;29;20084;-85
2023/08/29 05:05:29;;;;;;;59.55;22.73;;;;;;;;;;10158536;29;20115;-88
2023/08/29 05:10:30;;;;;;;53.80;22.65;;;;;;;;;;10153098;29;20556;-85
2023/08/29 05:15:32;;;;;;;43.65;20.52;;;;;;;;;;10163608;29;20039;-86
2023/08/29 05:20:34;;;;;;;59.85;22.60;;;;;;;;;;10142717;29;20269;-86
2023/08/29 05:25:35;;;;;;;46.53;21.83;;;;;;;;;;10177139;29;20472;-87
2023/08/29 05:30:37;;;;;;;29.15;17.33;;;;;;;;;;10171713;29;20044;-87
2023/08/29 05:35:38;;;;;;;40.17;19.45;;;;;;;;;;10176083;29;20036;-87
2023/08/29 05:40:39;;;;;;;53.67;21.15;;;;;;;;;;10157742;29;20034;-88
2023/08/29 05:45:42;;;;;;;47.88;20.63;;;;;;;;;;10164781;29;20036;-89
2023/08/29 05:50:43;;;;;;;37.88;19.58;;;;;;;;;;10165987;29;20028;-88
2023/08/29 05:55:44;;;;;;;38.72;20.33;;;;;;;;;;10168335;29;20047;-87
2023/08/29 06:00:45;;;;;;;33.65;21.15;;;;;;;;;;10236840;23;20069;-87
2023/08/29 06:05:48;;;;;;;33.58;20.75;;;;;;;;;;10274324;28;20122;-87
2023/08/29 06:10:49;;;;;;;42.45;23.00;;;;;;;;;;10275331;28;20061;-88
2023/08/29 06:15:50;;;;;;;45.80;24.02;;;;;;;;;;10275546;28;20046;-87
2023/08/29 06:20:51;;;;;;;57.17;26.00;;;;;;;;;;10275359;28;20038;-87
2023/08/29 06:25:54;;;;;;;52.92;25.67;;;;;;;;;;10275531;28;20033;-86
2023/08/29 06:30:55;;;;;;;56.25;26.23;;;;;;;;;;10278053;28;20038;-88
2023/08/29 06:35:56;;;;;;;54.17;27.65;;;;;;;;;;10270835;28;20073;-86
2023/08/29 06:40:58;;;;;;;49.50;27.95;;;;;;;;;;10273716;28;20073;-87
2023/08/29 06:45:59;;;;;;;55.20;33.38;;;;;;;;;;10273402;28;20031;-86
2023/08/29 06:51:01;;;;;;;47.60;26.55;;;;;;;;;;10282770;28;20679;-87
2023/08/29 06:56:02;;;;;;;46.08;25.45;;;;;;;;;;10282885;28;20035;-85
2023/08/29 07:01:03;;;;;;;50.15;28.00;;;;;;;;;;10281372;28;20284;-85
2023/08/29 07:06:04;;;;;;;54.67;29.73;;;;;;;;;;10276507;28;20042;-85
2023/08/29 07:11:06;;;;;;;43.75;25.23;;;;;;;;;;10273737;28;20037;-85
2023/08/29 07:16:07;;;;;;;40.80;24.63;;;;;;;;;;10280349;28;20115;-85
2023/08/29 07:21:09;;;;;;;40.70;22.20;;;;;;;;;;10271953;28;20103;-86
2023/08/29 07:26:10;;;;;;;31.80;17.67;;;;;;;;;;10272991;28;20832;-87
2023/08/29 07:31:11;;;;;;;35.25;19.58;;;;;;;;;;10273213;28;20042;-85
2023/08/29 07:36:12;;;;;;;48.15;23.60;;;;;;;;;;10285133;28;20034;-87
2023/08/29 07:41:14;;;;;;;45.97;23.48;;;;;;;;;;10275497;28;20041;-88
2023/08/29 07:46:15;;;;;;;45.97;22.95;;;;;;;;;;10280135;28;20034;-89
2023/08/29 07:51:16;;;;;;;48.40;23.88;;;;;;;;;;10268418;28;20038;-86
2023/08/29 07:56:17;;;;;;;43.30;22.48;;;;;;;;;;10278860;28;20034;-88
2023/08/29 08:01:18;;;;;;;40.67;20.85;;;;;;;;;;10278752;28;20658;-89
2023/08/29 08:06:19;;;;;;;33.42;19.50;;;;;;;;;;10278061;28;20188;-90
2023/08/29 08:11:20;;;;;;;32.83;20.65;;;;;;;;;;10279284;28;20074;-90
2023/08/29 08:16:21;;;;;;;32.85;19.00;;;;;;;;;;10277829;28;20082;-87
2023/08/29 08:21:22;;;;;;;29.63;17.67;;;;;;;;;;10280107;28;20054;-89
2023/08/29 08:26:24;;;;;;;25.10;15.50;;;;;;;;;;10277837;28;20031;-89
2023/08/29 08:31:25;;;;;;;20.48;12.77;;;;;;;;;;10275707;28;20031;-90
2023/08/29 08:36:28;;;;;;;14.75;11.32;;;;;;;;;;10264247;28;20046;-89
2023/08/29 08:41:29;;;;;;;16.02;11.00;;;;;;;;;;10278047;28;20038;-89
2023/08/29 08:46:31;;;;;;;15.88;11.15;;;;;;;;;;10276653;28;20038;-88
2023/08/29 08:51:32;;;;;;;14.85;11.20;;;;;;;;;;10268656;28;20030;-90
2023/08/29 08:56:38;;;;;;;15.55;11.07;;;;;;;;;;10275154;28;20411;-88
2023/08/29 09:01:40;;;;;;;15.25;10.70;;;;;;;;;;10279452;28;20058;-90
2023/08/29 09:06:41;;;;;;;12.07;9.07;;;;;;;;;;10272395;28;20598;-90
2023/08/29 09:11:42;;;;;;;12.48;9.13;;;;;;;;;;10265581;28;20027;-89
2023/08/29 09:16:46;;;;;;;15.35;9.93;;;;;;;;;;10273500;28;20089;-92
2023/08/29 09:21:47;;;;;;;12.93;9.90;;;;;;;;;;10274890;28;20031;-85
2023/08/29 09:26:48;;;;;;;15.27;11.93;;;;;;;;;;10273115;28;20443;-87
2023/08/29 09:31:53;;;;;;;17.30;11.80;;;;;;;;;;10275164;28;20035;-87
2023/08/29 09:36:54;;;;;;;14.53;11.63;;;;;;;;;;10277195;28;20085;-87
2023/08/29 09:42:10;;;;;;;16.10;11.75;;;;;;;;;;10272724;28;20511;-85
2023/08/29 09:47:11;;;;;;;16.75;12.88;;;;;;;;;;10273104;28;20027;-85
2023/08/29 09:52:13;;;;;;;20.08;13.82;;;;;;;;;;10276931;28;20467;-86
2023/08/29 09:57:15;;;;;;;23.02;14.55;;;;;;;;;;10274670;28;20043;-86
2023/08/29 10:02:20;;;;;;;22.98;14.88;;;;;;;;;;10271659;28;20509;-86
2023/08/29 10:07:29;;;;;;;23.35;15.68;;;;;;;;;;10272136;28;20032;-85
2023/08/29 10:12:30;;;;;;;20.92;14.10;;;;;;;;;;10276819;28;20488;-86
2023/08/29 10:17:37;;;;;;;18.50;13.50;;;;;;;;;;10268671;28;20054;-86
2023/08/29 10:22:39;;;;;;;18.77;13.32;;;;;;;;;;10274327;28;20043;-85
2023/08/29 10:27:40;;;;;;;16.05;12.25;;;;;;;;;;10276027;28;20031;-86
2023/08/29 10:32:43;;;;;;;20.15;13.93;;;;;;;;;;10282197;28;20027;-86
2023/08/29 10:37:44;;;;;;;24.45;16.42;;;;;;;;;;10283796;28;20035;-88
2023/08/29 10:42:49;;;;;;;19.67;14.77;;;;;;;;;;10285613;28;20045;-85
2023/08/29 10:47:53;;;;;;;18.73;13.15;;;;;;;;;;10271813;28;20035;-86
2023/08/29 10:52:56;;;;;;;25.15;17.02;;;;;;;;;;10285841;28;20491;-85
2023/08/29 10:58:00;;;;;;;23.10;16.58;;;;;;;;;;10284322;28;20027;-86
2023/08/29 11:03:02;;;;;;;22.93;16.80;;;;;;;;;;10302346;28;20066;-84
2023/08/29 11:08:21;;;;;;;23.23;16.60;;;;;;;;;;10269296;28;20674;-85
2023/08/29 11:13:22;;;;;;;23.05;16.30;;;;;;;;;;10268075;28;20023;-85
2023/08/29 11:18:35;;;;;;;22.17;15.13;;;;;;;;;;10223484;28;20118;-86
2023/08/29 11:23:40;;;;;;;21.80;14.98;;;;;;;;;;10273143;28;20094;-88
2023/08/29 11:28:42;;;;;;;24.42;16.10;;;;;;;;;;10281821;28;20066;-87
2023/08/29 11:33:43;;;;;;;26.92;17.90;;;;;;;;;;10252087;23;20436;-85
2023/08/29 11:38:45;;;;;;;21.50;16.17;;;;;;;;;;10163013;29;20042;-85
2023/08/29 11:43:46;;;;;;;25.10;17.67;;;;;;;;;;10142994;29;20076;-87
2023/08/29 11:48:47;;;;;;;25.08;18.50;;;;;;;;;;10150038;29;20131;-86
2023/08/29 11:53:51;;;;;;;24.13;17.50;;;;;;;;;;10164148;29;20058;-86
2023/08/29 11:58:55;;;;;;;26.08;18.05;;;;;;;;;;10132760;29;20043;-88
2023/08/29 12:03:56;;;;;;;26.40;17.42;;;;;;;;;;10161485;29;20060;-86
2023/08/29 12:08:59;;;;;;;30.48;19.90;;;;;;;;;;10141187;29;20055;-88
2023/08/29 12:14:01;;;;;;;32.92;21.33;;;;;;;;;;10103661;29;20044;-88
2023/08/29 12:19:06;;;;;;;31.65;20.08;;;;;;;;;;10100376;29;20043;-87
2023/08/29 12:24:11;;;;;;;36.17;22.13;;;;;;;;;;10101819;29;20088;-88
2023/08/29 12:29:12;;;;;;;32.50;21.65;;;;;;;;;;10116013;29;20040;-88
2023/08/29 12:34:13;;;;;;;35.65;24.65;;;;;;;;;;10118856;29;20528;-87
2023/08/29 12:39:14;;;;;;;39.55;25.40;;;;;;;;;;10124044;29;20052;-88
2023/08/29 12:44:15;;;;;;;39.50;26.73;;;;;;;;;;10101576;29;20037;-87
2023/08/29 12:49:16;;;;;;;45.45;28.63;;;;;;;;;;10121440;29;20121;-86
2023/08/29 12:54:17;;;;;;;36.40;22.48;;;;;;;;;;10117254;29;20045;-87
2023/08/29 12:59:18;;;;;;;34.83;23.08;;;;;;;;;;10099391;29;20032;-86
2023/08/29 13:04:19;;;;;;;37.92;23.73;;;;;;;;;;10109462;29;20040;-88
2023/08/29 13:09:21;;;;;;;40.17;25.83;;;;;;;;;;10102582;29;20033;-87
2023/08/29 13:14:22;;;;;;;33.38;21.70;;;;;;;;;;10101694;29;20051;-87
2023/08/29 13:19:24;;;;;;;33.33;22.77;;;;;;;;;;10106547;29;20029;-87
2023/08/29 13:24:25;;;;;;;35.53;23.48;;;;;;;;;;10121579;29;20032;-86
2023/08/29 13:29:26;;;;;;;39.63;24.27;;;;;;;;;;10122577;29;20486;-88
2023/08/29 13:34:27;;;;;;;37.38;22.88;;;;;;;;;;10126338;29;20482;-85
2023/08/29 13:39:28;;;;;;;34.38;21.50;;;;;;;;;;10097750;29;20032;-86
2023/08/29 13:44:30;;;;;;;38.50;23.25;;;;;;;;;;10103216;29;20061;-85
2023/08/29 13:49:31;;;;;;;35.30;23.23;;;;;;;;;;10121642;29;20025;-85
2023/08/29 13:54:32;;;;;;;37.25;22.15;;;;;;;;;;10104031;29;20040;-87
2023/08/29 13:59:33;;;;;;;40.05;23.52;;;;;;;;;;10104049;29;20472;-86
2023/08/29 14:04:34;;;;;;;39.63;24.23;;;;;;;;;;10101535;29;20040;-89
2023/08/29 14:09:35;;;;;;;37.90;23.02;;;;;;;;;;10106097;29;20112;-89
2023/08/29 14:14:36;;;;;;;42.65;24.65;;;;;;;;;;10099114;29;20041;-90
2023/08/29 14:19:38;;;;;;;55.03;27.33;;;;;;;;;;10103277;29;20044;-88
2023/08/29 14:24:39;;;;;;;51.58;28.65;;;;;;;;;;10104218;29;20036;-91
2023/08/29 14:29:47;;;;;;;48.42;29.27;;;;;;;;;;10115636;29;20036;-93
2023/08/29 14:34:48;;;;;;;54.35;29.35;;;;;;;;;;10101257;29;20425;-90
2023/08/29 14:39:49;;;;;;;63.08;30.77;;;;;;;;;;10097314;29;20033;-87
2023/08/29 14:44:50;;;;;;;69.50;33.13;;;;;;;;;;10107386;29;20160;-87
2023/08/29 14:50:11;;;;;;;99.75;36.45;;;;;;;;;;10119506;29;20127;-88
2023/08/29 14:55:12;;;;;;;81.18;33.88;;;;;;;;;;10106072;29;20551;-87
2023/08/29 15:00:14;;;;;;;85.38;36.60;;;;;;;;;;10100729;29;20511;-88
2023/08/29 15:05:26;;;;;;;90.68;35.38;;;;;;;;;;10097427;29;20047;-90
2023/08/29 15:10:27;;;;;;;42.25;22.00;;;;;;;;;;10109642;29;20025;-87
2023/08/29 15:15:37;;;;;;;51.42;23.80;;;;;;;;;;10120070;29;20549;-93
2023/08/29 15:20:47;;;;;;;55.08;24.85;;;;;;;;;;10111885;29;20083;-90
2023/08/29 15:25:50;;;;;;;37.97;21.05;;;;;;;;;;10121463;29;20052;-88
2023/08/29 15:30:52;;;;;;;37.95;19.48;;;;;;;;;;10102823;29;20037;-89
2023/08/29 15:35:56;;;;;;;33.55;18.27;;;;;;;;;;10141904;29;20393;-89
2023/08/29 15:46:48;;;;;;;45.45;23.65;;;;;;;;;;10159559;29;20051;-92
2023/08/29 15:51:49;;;;;;;51.30;24.65;;;;;;;;;;10157637;29;20033;-92
2023/08/29 15:56:53;;;;;;;61.20;25.58;;;;;;;;;;10176530;29;20559;-93
2023/08/29 16:01:54;;;;;;;53.58;26.08;;;;;;;;;;10166337;29;20095;-90
2023/08/29 16:06:55;;;;;;;54.13;25.77;;;;;;;;;;10152365;29;20044;-92
2023/08/29 16:11:57;;;;;;;85.65;32.35;;;;;;;;;;10153126;29;20035;-89
2023/08/29 16:16:58;;;;;;;78.82;31.88;;;;;;;;;;10177617;29;20046;-92
2023/08/29 16:22:18;;;;;;;73.53;31.95;;;;;;;;;;10163124;29;20048;-90
2023/08/29 16:27:20;;;;;;;82.65;31.52;;;;;;;;;;10166459;29;20032;-90
2023/08/29 16:32:30;;;;;;;80.50;34.72;;;;;;;;;;10165698;29;20063;-94
2023/08/29 16:43:25;;;;;;;102.47;37.42;;;;;;;;;;10164485;29;20064;-91
2023/08/29 16:48:26;;;;;;;89.28;35.42;;;;;;;;;;10148325;29;20040;-91
2023/08/29 16:53:27;;;;;;;76.45;32.28;;;;;;;;;;10146917;29;20040;-91
2023/08/29 16:58:28;;;;;;;102.90;34.97;;;;;;;;;;10139199;29;20847;-92
2023/08/29 17:03:29;;;;;;;86.25;32.78;;;;;;;;;;10150961;29;20036;-92
2023/08/29 17:14:12;;;;;;;74.75;32.05;;;;;;;;;;10160463;29;20135;-92
2023/08/29 17:19:52;;;;;;;76.30;30.98;;;;;;;;;;10144615;29;20131;-92
2023/08/29 17:24:54;;;;;;;65.82;29.27;;;;;;;;;;10149888;29;20036;-93
2023/08/29 17:30:07;;;;;;;63.38;26.98;;;;;;;;;;10138407;29;20043;-92
2023/08/29 17:41:00;;;;;;;64.18;25.65;;;;;;;;;;10118941;29;20044;-91
2023/08/29 17:57:24;;;;;;;49.28;22.63;;;;;;;;;;10124505;29;20049;-89
2023/08/29 18:02:26;;;;;;;51.10;23.40;;;;;;;;;;10124568;29;20025;-91
2023/08/29 18:07:33;;;;;;;47.55;24.25;;;;;;;;;;10176454;23;20063;-92
2023/08/29 18:12:34;;;;;;;58.88;25.48;;;;;;;;;;10200384;29;20040;-89
2023/08/29 18:17:35;;;;;;;67.50;28.58;;;;;;;;;;10196461;29;20047;-88
2023/08/29 18:22:37;;;;;;;71.95;29.63;;;;;;;;;;10192847;29;20395;-89
2023/08/29 18:27:38;;;;;;;77.32;28.67;;;;;;;;;;10196369;29;20135;-89
2023/08/29 18:32:39;;;;;;;80.97;31.60;;;;;;;;;;10187476;29;20116;-90
2023/08/29 18:37:59;;;;;;;76.10;29.50;;;;;;;;;;10195838;29;20071;-90
2023/08/29 18:43:04;;;;;;;69.47;29.75;;;;;;;;;;10191924;28;20028;-90
2023/08/29 18:48:05;;;;;;;83.85;31.17;;;;;;;;;;10205467;29;20035;-90
2023/08/29 18:53:06;;;;;;;97.35;32.95;;;;;;;;;;10222892;28;20043;-90
2023/08/29 18:58:07;;;;;;;89.40;31.95;;;;;;;;;;10192493;29;20027;-90
2023/08/29 19:03:16;;;;;;;104.15;33.42;;;;;;;;;;10205473;29;20707;-90
2023/08/29 19:08:17;;;;;;;80.18;29.23;;;;;;;;;;10200290;29;20048;-89
2023/08/29 19:13:21;;;;;;;96.10;31.15;;;;;;;;;;10198078;29;20035;-91
2023/08/29 19:18:23;;;;;;;94.07;31.05;;;;;;;;;;10206356;29;20483;-91
2023/08/29 19:23:26;;;;;;;76.43;29.10;;;;;;;;;;10202272;29;20063;-88
2023/08/29 19:28:27;;;;;;;86.75;31.50;;;;;;;;;;10213167;29;20028;-90
2023/08/29 19:33:28;;;;;;;64.38;25.27;;;;;;;;;;10203896;29;20661;-89
2023/08/29 19:38:29;;;;;;;74.15;27.30;;;;;;;;;;10192988;29;20024;-90
2023/08/29 19:43:31;;;;;;;64.97;26.58;;;;;;;;;;10203710;29;20500;-89
2023/08/29 19:48:32;;;;;;;70.15;27.50;;;;;;;;;;10202798;29;20459;-89
2023/08/29 19:53:33;;;;;;;70.88;28.60;;;;;;;;;;10217076;23;20074;-89
2023/08/29 19:58:42;;;;;;;71.75;29.75;;;;;;;;;;10211826;29;20143;-91
2023/08/29 20:03:43;;;;;;;73.43;31.42;;;;;;;;;;10200111;29;20075;-88
2023/08/29 20:08:44;;;;;;;84.22;30.15;;;;;;;;;;10178373;29;20449;-89
2023/08/29 20:19:33;;;;;;;85.00;33.22;;;;;;;;;;10189351;29;20066;-90
2023/08/29 20:25:09;;;;;;;84.55;34.50;;;;;;;;;;10171952;29;20079;-90
2023/08/29 20:36:26;;;;;;;85.00;32.75;;;;;;;;;;10132887;29;20052;-89
2023/08/29 20:41:50;;;;;;;75.85;32.25;;;;;;;;;;10185067;29;20043;-90
2023/08/29 20:46:51;;;;;;;79.97;31.45;;;;;;;;;;10089647;29;20510;-89
2023/08/29 20:51:52;;;;;;;67.45;27.17;;;;;;;;;;10185119;29;20317;-90
2023/08/29 20:56:56;;;;;;;58.72;25.70;;;;;;;;;;10205219;29;20054;-90
2023/08/29 21:02:15;;;;;;;57.90;26.67;;;;;;;;;;10234211;29;20566;-90
2023/08/29 21:07:17;;;;;;;53.47;24.20;;;;;;;;;;10225230;28;20132;-89
2023/08/29 21:12:21;;;;;;;54.60;25.55;;;;;;;;;;10234079;29;20047;-90
2023/08/29 21:23:16;;;;;;;48.90;20.83;;;;;;;;;;10127903;29;20059;-89
2023/08/29 21:28:17;;;;;;;52.15;21.83;;;;;;;;;;10219826;29;20047;-91
2023/08/29 21:33:18;;;;;;;80.75;24.35;;;;;;;;;;10216269;29;20031;-88
2023/08/29 21:38:21;;;;;;;89.82;24.08;;;;;;;;;;10227553;29;20028;-87
2023/08/29 21:43:23;;;;;;;55.55;20.15;;;;;;;;;;10229081;29;20502;-89
2023/08/29 21:48:24;;;;;;;52.75;20.23;;;;;;;;;;10219616;29;20534;-88
2023/08/29 21:53:25;;;;;;;50.88;18.85;;;;;;;;;;10210404;29;20060;-90
2023/08/29 21:58:26;;;;;;;45.03;17.13;;;;;;;;;;10167774;29;20050;-89
2023/08/29 22:03:27;;;;;;;39.88;16.13;;;;;;;;;;10170812;29;20472;-89
2023/08/29 22:08:28;;;;;;;31.80;14.38;;;;;;;;;;10180028;29;20062;-90
2023/08/29 22:13:29;;;;;;;45.20;16.98;;;;;;;;;;10183389;29;20046;-90
2023/08/29 22:18:31;;;;;;;43.22;17.33;;;;;;;;;;10191855;29;20420;-88
2023/08/29 22:23:32;;;;;;;52.95;18.88;;;;;;;;;;10203207;29;20043;-86
2023/08/29 22:28:33;;;;;;;73.13;21.92;;;;;;;;;;10200734;29;20043;-90
2023/08/29 22:33:34;;;;;;;58.63;19.77;;;;;;;;;;10180724;29;20035;-89
2023/08/29 22:38:35;;;;;;;83.55;22.60;;;;;;;;;;10199890;29;20031;-88
2023/08/29 22:43:36;;;;;;;52.63;19.40;;;;;;;;;;10209273;29;20038;-88
2023/08/29 22:48:37;;;;;;;44.92;16.92;;;;;;;;;;10183025;29;20459;-90
2023/08/29 22:53:39;;;;;;;41.97;17.20;;;;;;;;;;10169569;29;20056;-89
2023/08/29 22:58:40;;;;;;;34.78;15.35;;;;;;;;;;10183431;29;20036;-87
2023/08/29 23:03:41;;;;;;;58.10;18.33;;;;;;;;;;10196815;29;20560;-88
2023/08/29 23:08:42;;;;;;;69.07;21.13;;;;;;;;;;10193130;29;20031;-89
2023/08/29 23:13:44;;;;;;;62.47;19.27;;;;;;;;;;10184347;29;20036;-87
2023/08/29 23:18:45;;;;;;;42.30;15.60;;;;;;;;;;10185931;29;20130;-90
2023/08/29 23:23:46;;;;;;;29.95;13.48;;;;;;;;;;10195150;29;20399;-88
2023/08/29 23:28:47;;;;;;;39.28;15.15;;;;;;;;;;10190544;29;20053;-89
2023/08/29 23:33:51;;;;;;;42.88;16.20;;;;;;;;;;10187550;29;20046;-89
2023/08/29 23:38:52;;;;;;;40.37;16.53;;;;;;;;;;10190171;29;20075;-86
2023/08/29 23:43:54;;;;;;;47.65;16.70;;;;;;;;;;10189250;29;20522;-86
2023/08/29 23:48:55;;;;;;;59.25;20.52;;;;;;;;;;10187908;29;20147;-87
2023/08/29 23:53:56;;;;;;;73.35;21.63;;;;;;;;;;10179998;29;20149;-90
2023/08/29 23:58:57;;;;;;;96.30;25.60;;;;;;;;;;10197828;29;20110;-86
